Time;durP1;ratioP1;P1;durP2;ratioP2;P2;SDS_P1;SDS_P2;PMS_P1;PMS_P2;Temp;Humidity;BMP_temperature;BMP_pressure;BME280_temperature;BME280_humidity;BME280_pressure;Samples;Min_cycle;Max_cycle;Signal;HPM_P1;HPM_P2
2022/03/31 00:00:35;;;;;;;8.57;4.15;;;;;;;;;;4987457;28;20032;-79
2022/03/31 00:03:04;;;;;;;10.90;4.07;;;;;;;;;;5019426;28;20245;-80
2022/03/31 00:05:32;;;;;;;10.48;4.35;;;;;;;;;;5003175;28;20352;-79
2022/03/31 00:07:59;;;;;;;10.77;4.50;;;;;;;;;;5021702;28;20370;-79
2022/03/31 00:10:27;;;;;;;10.43;5.25;;;;;;;;;;5022173;28;20022;-79
2022/03/31 00:12:54;;;;;;;11.45;4.55;;;;;;;;;;5020695;28;20044;-79
2022/03/31 00:15:20;;;;;;;8.02;3.92;;;;;;;;;;5018494;28;20037;-78
2022/03/31 00:17:45;;;;;;;9.95;4.35;;;;;;;;;;5005499;28;21895;-77
2022/03/31 00:20:11;;;;;;;11.23;3.85;;;;;;;;;;4987768;28;20044;-79
2022/03/31 00:22:37;;;;;;;9.07;4.20;;;;;;;;;;5020785;28;20555;-78
2022/03/31 00:25:03;;;;;;;14.30;4.50;;;;;;;;;;5021348;28;20287;-78
2022/03/31 00:27:29;;;;;;;6.05;3.65;;;;;;;;;;5005701;28;20043;-78
2022/03/31 00:29:55;;;;;;;8.65;3.92;;;;;;;;;;5003459;28;20437;-78
2022/03/31 00:32:20;;;;;;;8.98;4.20;;;;;;;;;;5020283;28;20043;-78
2022/03/31 00:34:46;;;;;;;6.50;4.13;;;;;;;;;;5019896;28;20484;-79
2022/03/31 00:37:11;;;;;;;8.65;4.05;;;;;;;;;;5023675;28;20040;-78
2022/03/31 00:39:39;;;;;;;9.18;3.90;;;;;;;;;;5023811;28;20060;-79
2022/03/31 00:42:08;;;;;;;10.27;4.20;;;;;;;;;;5003081;28;20469;-78
2022/03/31 00:44:33;;;;;;;9.27;3.92;;;;;;;;;;5020386;28;20041;-78
2022/03/31 00:46:59;;;;;;;8.25;4.53;;;;;;;;;;5020697;28;20250;-77
2022/03/31 00:49:28;;;;;;;8.50;4.03;;;;;;;;;;5020647;28;20037;-77
2022/03/31 00:51:54;;;;;;;11.48;4.22;;;;;;;;;;5021499;28;20560;-77
2022/03/31 00:54:20;;;;;;;8.63;3.85;;;;;;;;;;5022081;28;20121;-77
2022/03/31 00:56:46;;;;;;;9.65;3.78;;;;;;;;;;5021411;28;20025;-77
2022/03/31 00:59:12;;;;;;;9.80;3.88;;;;;;;;;;5023775;28;20024;-76
2022/03/31 01:01:38;;;;;;;11.15;4.10;;;;;;;;;;5029345;28;20121;-76
2022/03/31 01:04:05;;;;;;;10.13;4.40;;;;;;;;;;5015817;28;20018;-76
2022/03/31 01:06:30;;;;;;;8.77;4.38;;;;;;;;;;4983387;28;20039;-76
2022/03/31 01:08:56;;;;;;;12.48;4.80;;;;;;;;;;5013001;28;20022;-76
2022/03/31 01:11:24;;;;;;;9.77;4.95;;;;;;;;;;5023910;28;20037;-77
2022/03/31 01:13:50;;;;;;;8.82;4.50;;;;;;;;;;5022496;28;20455;-77
2022/03/31 01:16:16;;;;;;;14.52;4.45;;;;;;;;;;5020905;28;20085;-76
2022/03/31 01:18:41;;;;;;;12.27;4.50;;;;;;;;;;5022065;28;20035;-76
2022/03/31 01:21:09;;;;;;;9.32;4.43;;;;;;;;;;5003412;28;20041;-76
2022/03/31 01:23:35;;;;;;;10.13;4.72;;;;;;;;;;5019954;28;20621;-77
2022/03/31 01:26:05;;;;;;;12.18;5.38;;;;;;;;;;5022301;28;20031;-76
2022/03/31 01:28:34;;;;;;;11.68;4.35;;;;;;;;;;5019287;28;20510;-76
2022/03/31 01:31:00;;;;;;;13.23;4.90;;;;;;;;;;5019434;28;20582;-76
2022/03/31 01:33:25;;;;;;;9.63;4.90;;;;;;;;;;5019709;28;21105;-76
2022/03/31 01:35:50;;;;;;;10.15;4.45;;;;;;;;;;5000739;28;20364;-76
2022/03/31 01:38:18;;;;;;;10.13;4.82;;;;;;;;;;5001771;28;20029;-76
2022/03/31 01:40:44;;;;;;;13.75;4.88;;;;;;;;;;5022187;28;20033;-77
2022/03/31 01:43:11;;;;;;;7.95;4.53;;;;;;;;;;5022648;28;20240;-76
2022/03/31 01:45:37;;;;;;;8.88;5.03;;;;;;;;;;5022919;28;20043;-75
2022/03/31 01:48:04;;;;;;;10.18;4.93;;;;;;;;;;5004351;28;20029;-76
2022/03/31 01:50:29;;;;;;;11.05;5.18;;;;;;;;;;5019297;28;20111;-76
2022/03/31 01:52:55;;;;;;;11.77;5.50;;;;;;;;;;5009812;28;20028;-76
2022/03/31 01:55:21;;;;;;;11.18;5.55;;;;;;;;;;5020538;28;20029;-75
2022/03/31 01:57:46;;;;;;;15.18;5.20;;;;;;;;;;5017851;28;20528;-76
2022/03/31 02:00:13;;;;;;;10.25;4.53;;;;;;;;;;5004109;28;20543;-76
2022/03/31 02:02:39;;;;;;;8.40;4.72;;;;;;;;;;5018672;28;20102;-76
2022/03/31 02:05:07;;;;;;;11.23;5.35;;;;;;;;;;5018525;28;20033;-76
2022/03/31 02:07:32;;;;;;;12.32;4.63;;;;;;;;;;5000757;28;20052;-76
2022/03/31 02:09:58;;;;;;;12.05;4.90;;;;;;;;;;5001376;28;20669;-76
2022/03/31 02:12:23;;;;;;;11.95;4.60;;;;;;;;;;5006822;28;20045;-76
2022/03/31 02:14:49;;;;;;;11.00;5.10;;;;;;;;;;5018442;28;20025;-75
2022/03/31 02:17:17;;;;;;;9.07;4.88;;;;;;;;;;5000276;28;20156;-76
2022/03/31 02:19:42;;;;;;;11.32;5.15;;;;;;;;;;5019433;28;20493;-75
2022/03/31 02:22:10;;;;;;;13.30;5.70;;;;;;;;;;5018024;28;20069;-75
2022/03/31 02:24:36;;;;;;;9.13;5.00;;;;;;;;;;5018584;28;20053;-75
2022/03/31 02:27:02;;;;;;;11.85;4.72;;;;;;;;;;5017021;28;20111;-76
2022/03/31 02:29:27;;;;;;;13.80;5.22;;;;;;;;;;4998852;28;20501;-76
2022/03/31 02:31:53;;;;;;;9.98;5.00;;;;;;;;;;5019130;28;20045;-75
2022/03/31 02:34:21;;;;;;;16.17;5.22;;;;;;;;;;5005923;28;20524;-75
2022/03/31 02:36:47;;;;;;;10.07;4.50;;;;;;;;;;5005821;28;20533;-75
2022/03/31 02:39:12;;;;;;;10.57;4.80;;;;;;;;;;5018394;28;20071;-75
2022/03/31 02:41:38;;;;;;;10.02;4.65;;;;;;;;;;5000209;28;20126;-75
2022/03/31 02:44:05;;;;;;;13.20;4.82;;;;;;;;;;5002177;28;20056;-74
2022/03/31 02:46:31;;;;;;;11.38;4.40;;;;;;;;;;5018045;28;20033;-74
2022/03/31 02:48:56;;;;;;;15.57;4.70;;;;;;;;;;5018996;28;20051;-74
2022/03/31 02:51:25;;;;;;;12.65;4.82;;;;;;;;;;5016901;28;20032;-74
2022/03/31 02:56:37;;;;;;;10.82;4.38;;;;;;;;;;5017721;28;20057;-76
2022/03/31 02:59:04;;;;;;;14.93;5.35;;;;;;;;;;5008061;28;20116;-75
2022/03/31 03:01:30;;;;;;;11.80;5.07;;;;;;;;;;5018947;28;20046;-75
2022/03/31 03:03:57;;;;;;;18.77;5.07;;;;;;;;;;5018179;28;20056;-75
2022/03/31 03:06:23;;;;;;;11.95;4.68;;;;;;;;;;5021123;28;20155;-75
2022/03/31 03:08:51;;;;;;;10.48;4.40;;;;;;;;;;5018921;28;20284;-74
2022/03/31 03:11:20;;;;;;;14.15;4.97;;;;;;;;;;5018784;28;20064;-75
2022/03/31 03:13:46;;;;;;;12.20;5.20;;;;;;;;;;5019093;28;20033;-74
2022/03/31 03:16:14;;;;;;;14.10;5.05;;;;;;;;;;5015111;28;20112;-75
2022/03/31 03:18:40;;;;;;;12.38;5.03;;;;;;;;;;5002925;28;20521;-75
2022/03/31 03:21:07;;;;;;;12.02;4.72;;;;;;;;;;4999976;28;20189;-76
2022/03/31 03:23:34;;;;;;;10.70;4.95;;;;;;;;;;4978897;28;20021;-74
2022/03/31 03:26:02;;;;;;;12.07;4.13;;;;;;;;;;4998724;28;20036;-75
2022/03/31 03:28:29;;;;;;;17.00;5.03;;;;;;;;;;4982869;28;20097;-74
2022/03/31 03:31:00;;;;;;;13.38;5.35;;;;;;;;;;4979073;28;20056;-75
2022/03/31 03:33:25;;;;;;;14.13;4.72;;;;;;;;;;4980417;28;20665;-73
2022/03/31 03:35:51;;;;;;;12.15;4.88;;;;;;;;;;4995329;28;20057;-74
2022/03/31 03:38:16;;;;;;;13.88;4.80;;;;;;;;;;4983341;28;20470;-74
2022/03/31 03:40:43;;;;;;;12.45;5.05;;;;;;;;;;4980130;28;20106;-75
2022/03/31 03:43:09;;;;;;;17.33;5.32;;;;;;;;;;4997451;28;20030;-75
2022/03/31 03:45:36;;;;;;;12.07;4.43;;;;;;;;;;4996758;28;20117;-75
2022/03/31 03:48:02;;;;;;;12.10;4.70;;;;;;;;;;4997371;28;20025;-74
2022/03/31 03:50:28;;;;;;;10.68;4.68;;;;;;;;;;4997257;28;20032;-75
2022/03/31 03:52:53;;;;;;;14.77;5.07;;;;;;;;;;4997296;28;20030;-74
2022/03/31 03:55:20;;;;;;;11.68;4.55;;;;;;;;;;4995860;28;20033;-74
2022/03/31 03:57:46;;;;;;;13.43;4.57;;;;;;;;;;4996502;28;20129;-75
2022/03/31 04:00:12;;;;;;;11.18;4.50;;;;;;;;;;4996169;28;20042;-75
2022/03/31 04:02:38;;;;;;;11.88;4.22;;;;;;;;;;4984257;28;20115;-74
2022/03/31 04:05:04;;;;;;;13.70;4.13;;;;;;;;;;4980925;28;20609;-74
2022/03/31 04:07:29;;;;;;;8.65;3.97;;;;;;;;;;4995446;28;20166;-75
2022/03/31 04:09:55;;;;;;;6.45;3.75;;;;;;;;;;4981839;28;20033;-75
2022/03/31 04:12:23;;;;;;;12.07;4.90;;;;;;;;;;5004147;28;20032;-75
2022/03/31 04:14:49;;;;;;;13.57;4.28;;;;;;;;;;5003843;28;20029;-75
2022/03/31 04:17:15;;;;;;;11.38;4.63;;;;;;;;;;4995280;28;20060;-74
2022/03/31 04:19:43;;;;;;;10.20;4.47;;;;;;;;;;5006727;28;20048;-74
2022/03/31 04:22:11;;;;;;;9.88;4.32;;;;;;;;;;5002886;28;20037;-75
2022/03/31 04:24:37;;;;;;;9.23;4.53;;;;;;;;;;5002122;28;20125;-75
2022/03/31 04:27:03;;;;;;;12.93;4.13;;;;;;;;;;5003388;28;20519;-75
2022/03/31 04:29:28;;;;;;;10.63;4.30;;;;;;;;;;5001570;28;20112;-75
2022/03/31 04:31:53;;;;;;;11.20;4.43;;;;;;;;;;5001454;28;20076;-75
2022/03/31 04:34:19;;;;;;;11.32;4.10;;;;;;;;;;4999913;28;20054;-75
2022/03/31 04:36:45;;;;;;;10.88;4.25;;;;;;;;;;4999168;28;21965;-76
2022/03/31 04:39:12;;;;;;;10.23;4.25;;;;;;;;;;5000060;28;20064;-76
2022/03/31 04:41:38;;;;;;;13.38;4.30;;;;;;;;;;4999870;28;20486;-73
2022/03/31 04:44:04;;;;;;;14.10;4.40;;;;;;;;;;4999553;28;22357;-75
2022/03/31 04:46:29;;;;;;;11.30;4.72;;;;;;;;;;4999113;28;20033;-75
2022/03/31 04:48:55;;;;;;;10.13;5.20;;;;;;;;;;4997570;28;20061;-75
2022/03/31 04:51:23;;;;;;;11.18;4.65;;;;;;;;;;4997813;28;20121;-74
2022/03/31 04:53:48;;;;;;;10.50;4.50;;;;;;;;;;4998654;28;20044;-75
2022/03/31 04:56:15;;;;;;;11.75;4.85;;;;;;;;;;4999084;28;20353;-75
2022/03/31 04:58:40;;;;;;;12.02;5.50;;;;;;;;;;4998925;28;20370;-74
2022/03/31 05:01:05;;;;;;;9.80;4.55;;;;;;;;;;4998294;28;20041;-75
2022/03/31 05:03:30;;;;;;;10.80;4.55;;;;;;;;;;4999376;28;20036;-75
2022/03/31 05:05:56;;;;;;;8.75;4.72;;;;;;;;;;4999420;28;20037;-75
2022/03/31 05:08:22;;;;;;;11.25;4.47;;;;;;;;;;4997627;28;20030;-75
2022/03/31 05:10:47;;;;;;;10.60;4.50;;;;;;;;;;5013341;28;20041;-76
2022/03/31 05:13:12;;;;;;;10.70;4.40;;;;;;;;;;4999229;28;20454;-76
2022/03/31 05:15:38;;;;;;;8.85;4.03;;;;;;;;;;4981378;28;20034;-76
2022/03/31 05:18:04;;;;;;;12.80;4.22;;;;;;;;;;5000338;28;20041;-75
2022/03/31 05:20:30;;;;;;;10.95;4.35;;;;;;;;;;5016730;28;20036;-74
2022/03/31 05:22:56;;;;;;;11.50;4.20;;;;;;;;;;5015298;28;20041;-74
2022/03/31 05:25:21;;;;;;;9.18;4.10;;;;;;;;;;5018963;28;20267;-73
2022/03/31 05:27:47;;;;;;;10.23;4.13;;;;;;;;;;5017327;28;20036;-74
2022/03/31 05:30:14;;;;;;;9.98;4.15;;;;;;;;;;5017529;28;20151;-73
2022/03/31 05:32:40;;;;;;;7.05;3.90;;;;;;;;;;5017801;28;20125;-74
2022/03/31 05:35:06;;;;;;;8.10;3.65;;;;;;;;;;5016176;28;20119;-74
2022/03/31 05:37:33;;;;;;;11.43;3.88;;;;;;;;;;5017143;28;20064;-75
2022/03/31 05:40:04;;;;;;;10.10;4.53;;;;;;;;;;4999250;28;21876;-74
2022/03/31 05:42:29;;;;;;;9.70;4.25;;;;;;;;;;5017223;28;20492;-73
2022/03/31 05:44:56;;;;;;;9.88;4.10;;;;;;;;;;5017975;28;20452;-72
2022/03/31 05:47:22;;;;;;;8.65;3.90;;;;;;;;;;5017613;28;20108;-73
2022/03/31 05:49:48;;;;;;;10.40;4.22;;;;;;;;;;5017756;28;20159;-72
2022/03/31 05:52:13;;;;;;;9.93;4.50;;;;;;;;;;5016675;28;20057;-73
2022/03/31 05:54:38;;;;;;;8.82;4.50;;;;;;;;;;4999388;28;20048;-73
2022/03/31 05:57:04;;;;;;;10.27;5.30;;;;;;;;;;5017273;28;20037;-73
2022/03/31 05:59:29;;;;;;;8.65;4.72;;;;;;;;;;4999951;28;20102;-74
2022/03/31 06:01:54;;;;;;;10.40;4.80;;;;;;;;;;5016800;28;20332;-73
2022/03/31 06:04:21;;;;;;;10.65;5.70;;;;;;;;;;5016385;28;20083;-74
2022/03/31 06:06:50;;;;;;;15.27;5.45;;;;;;;;;;5016565;28;20101;-73
2022/03/31 06:09:16;;;;;;;9.13;5.07;;;;;;;;;;5016923;28;20728;-73
2022/03/31 06:11:42;;;;;;;11.75;5.75;;;;;;;;;;5014183;28;20072;-73
2022/03/31 06:14:08;;;;;;;16.02;5.93;;;;;;;;;;5017968;28;20282;-73
2022/03/31 06:16:34;;;;;;;8.98;6.03;;;;;;;;;;5015412;28;20148;-72
2022/03/31 06:19:01;;;;;;;10.82;5.57;;;;;;;;;;4998300;28;20060;-73
2022/03/31 06:21:27;;;;;;;11.07;5.85;;;;;;;;;;4984757;28;20048;-72
2022/03/31 06:23:52;;;;;;;9.68;6.03;;;;;;;;;;4987586;28;20135;-73
2022/03/31 06:26:18;;;;;;;7.57;5.80;;;;;;;;;;5014672;28;20409;-73
2022/03/31 06:28:43;;;;;;;12.98;6.47;;;;;;;;;;5016069;28;20082;-73
2022/03/31 06:31:09;;;;;;;11.35;5.40;;;;;;;;;;5016712;28;20033;-73
2022/03/31 06:33:34;;;;;;;8.50;5.25;;;;;;;;;;5014859;28;20036;-73
2022/03/31 06:36:00;;;;;;;9.10;5.60;;;;;;;;;;5016502;28;20029;-72
2022/03/31 06:38:25;;;;;;;7.80;4.50;;;;;;;;;;5015994;28;20025;-73
2022/03/31 06:41:06;;;;;;;8.43;4.45;;;;;;;;;;4997756;28;20402;-73
2022/03/31 06:43:34;;;;;;;6.93;4.07;;;;;;;;;;5016727;28;20114;-73
2022/03/31 06:46:00;;;;;;;7.97;3.67;;;;;;;;;;4997896;28;20112;-73
2022/03/31 06:48:26;;;;;;;7.13;3.30;;;;;;;;;;5017090;28;20029;-73
2022/03/31 06:50:51;;;;;;;5.95;3.45;;;;;;;;;;4997658;28;20048;-72
2022/03/31 06:53:17;;;;;;;7.10;3.60;;;;;;;;;;5017215;28;20473;-73
2022/03/31 06:55:44;;;;;;;11.05;3.88;;;;;;;;;;4998744;28;20090;-74
2022/03/31 06:58:10;;;;;;;9.30;4.13;;;;;;;;;;5016314;28;20406;-75
2022/03/31 07:00:35;;;;;;;6.82;3.53;;;;;;;;;;4998717;28;20033;-72
2022/03/31 07:03:01;;;;;;;7.63;3.38;;;;;;;;;;5016458;28;20028;-73
2022/03/31 07:05:28;;;;;;;8.13;4.00;;;;;;;;;;5017327;28;20028;-74
2022/03/31 07:07:55;;;;;;;7.13;3.72;;;;;;;;;;5016748;28;20600;-73
2022/03/31 07:10:21;;;;;;;7.85;3.47;;;;;;;;;;5016769;28;20041;-73
2022/03/31 07:12:47;;;;;;;8.70;4.20;;;;;;;;;;5016437;28;20033;-73
2022/03/31 07:15:13;;;;;;;8.52;3.80;;;;;;;;;;5016053;28;20037;-74
2022/03/31 07:17:39;;;;;;;6.00;3.85;;;;;;;;;;4998154;28;20110;-73
2022/03/31 07:20:05;;;;;;;6.30;3.60;;;;;;;;;;5001575;28;20578;-74
2022/03/31 07:22:30;;;;;;;7.25;3.35;;;;;;;;;;5017232;28;20064;-74
2022/03/31 07:24:56;;;;;;;6.25;3.25;;;;;;;;;;5014729;28;20029;-73
2022/03/31 07:27:21;;;;;;;6.53;2.70;;;;;;;;;;4998645;28;20135;-73
2022/03/31 07:29:46;;;;;;;5.40;2.92;;;;;;;;;;4999492;28;20040;-74
2022/03/31 07:32:14;;;;;;;5.35;2.80;;;;;;;;;;5015925;28;20415;-74
2022/03/31 07:34:40;;;;;;;4.45;2.60;;;;;;;;;;5015435;28;20075;-75
2022/03/31 07:37:05;;;;;;;4.35;2.53;;;;;;;;;;4996677;28;20041;-76
2022/03/31 07:39:32;;;;;;;6.63;2.60;;;;;;;;;;4997416;28;20541;-75
2022/03/31 07:41:57;;;;;;;5.80;2.35;;;;;;;;;;4997667;28;20044;-75
2022/03/31 07:44:25;;;;;;;5.25;2.40;;;;;;;;;;5014968;28;20029;-74
2022/03/31 07:46:51;;;;;;;7.47;2.80;;;;;;;;;;5018677;28;20047;-75
2022/03/31 07:49:17;;;;;;;7.20;2.95;;;;;;;;;;5019644;28;20052;-73
2022/03/31 07:51:44;;;;;;;5.30;2.22;;;;;;;;;;5003851;28;20077;-75
2022/03/31 07:54:13;;;;;;;3.08;2.10;;;;;;;;;;5020209;28;20029;-74
2022/03/31 07:56:38;;;;;;;5.47;1.90;;;;;;;;;;5019943;28;20100;-75
2022/03/31 07:59:04;;;;;;;2.75;1.50;;;;;;;;;;5019910;28;20040;-74
2022/03/31 08:01:30;;;;;;;2.70;1.63;;;;;;;;;;5001545;28;20099;-75
2022/03/31 08:03:55;;;;;;;4.30;1.92;;;;;;;;;;5002341;28;20029;-75
2022/03/31 08:06:21;;;;;;;2.80;1.92;;;;;;;;;;5001167;28;20040;-74
2022/03/31 08:08:47;;;;;;;2.92;1.80;;;;;;;;;;5002143;28;20596;-74
2022/03/31 08:11:14;;;;;;;2.42;1.70;;;;;;;;;;5018533;28;20068;-74
2022/03/31 08:13:40;;;;;;;2.85;1.70;;;;;;;;;;5020610;28;20040;-74
2022/03/31 08:16:06;;;;;;;5.25;2.00;;;;;;;;;;5019021;28;20064;-74
2022/03/31 08:18:33;;;;;;;3.15;1.80;;;;;;;;;;5019309;28;20045;-74
2022/03/31 08:20:59;;;;;;;2.33;1.65;;;;;;;;;;5018366;28;20140;-74
2022/03/31 08:23:25;;;;;;;5.85;2.28;;;;;;;;;;5000882;28;20415;-74
2022/03/31 08:25:50;;;;;;;2.78;1.83;;;;;;;;;;5019308;28;20029;-74
2022/03/31 08:28:16;;;;;;;2.63;2.20;;;;;;;;;;5019758;28;20437;-73
2022/03/31 08:30:43;;;;;;;2.92;2.13;;;;;;;;;;5018351;28;20144;-73
2022/03/31 08:33:09;;;;;;;3.40;2.45;;;;;;;;;;5001394;28;20067;-74
2022/03/31 08:35:34;;;;;;;4.05;2.35;;;;;;;;;;5002036;28;20069;-74
2022/03/31 08:38:00;;;;;;;3.05;2.60;;;;;;;;;;5019694;28;20655;-74
2022/03/31 08:40:25;;;;;;;4.35;2.40;;;;;;;;;;5003097;28;20098;-73
2022/03/31 08:42:51;;;;;;;3.30;2.92;;;;;;;;;;5020011;28;20033;-74
2022/03/31 08:45:18;;;;;;;3.63;2.67;;;;;;;;;;5018435;28;20057;-74
2022/03/31 08:47:44;;;;;;;3.78;2.35;;;;;;;;;;5000879;28;20099;-75
2022/03/31 08:50:10;;;;;;;4.20;2.70;;;;;;;;;;5019925;28;20396;-74
2022/03/31 08:52:35;;;;;;;3.00;2.60;;;;;;;;;;5019501;28;20029;-74
2022/03/31 08:55:01;;;;;;;4.95;2.63;;;;;;;;;;5020009;28;20455;-75
2022/03/31 08:57:48;;;;;;;5.55;2.75;;;;;;;;;;5019168;28;20308;-74
2022/03/31 09:00:15;;;;;;;3.45;2.85;;;;;;;;;;5018600;28;20493;-75
2022/03/31 09:02:56;;;;;;;3.10;2.60;;;;;;;;;;5000342;28;20033;-75
2022/03/31 09:05:22;;;;;;;3.50;2.63;;;;;;;;;;5018309;28;20023;-75
2022/03/31 09:07:58;;;;;;;3.45;2.53;;;;;;;;;;5018062;28;20033;-74
2022/03/31 09:10:37;;;;;;;3.60;2.50;;;;;;;;;;5009710;28;20330;-74
2022/03/31 09:13:04;;;;;;;2.65;2.30;;;;;;;;;;5010992;28;20542;-74
2022/03/31 09:15:32;;;;;;;5.38;2.85;;;;;;;;;;5018921;28;20537;-74
2022/03/31 09:17:58;;;;;;;3.10;2.80;;;;;;;;;;5018067;28;20089;-74
2022/03/31 09:20:37;;;;;;;3.83;3.17;;;;;;;;;;5017806;28;20129;-74
2022/03/31 09:23:03;;;;;;;3.83;3.42;;;;;;;;;;4999639;28;20230;-75
2022/03/31 09:25:28;;;;;;;3.40;2.92;;;;;;;;;;5017365;28;20045;-74
2022/03/31 09:27:59;;;;;;;3.83;2.90;;;;;;;;;;5017568;28;20115;-74
2022/03/31 09:30:24;;;;;;;4.63;3.05;;;;;;;;;;5001672;28;20045;-75
2022/03/31 09:32:51;;;;;;;3.55;2.90;;;;;;;;;;4999551;28;20103;-75
2022/03/31 09:35:20;;;;;;;4.70;2.95;;;;;;;;;;5017415;28;20033;-73
2022/03/31 09:37:48;;;;;;;3.22;2.83;;;;;;;;;;5008510;28;20037;-72
2022/03/31 09:40:13;;;;;;;4.68;3.20;;;;;;;;;;4985813;28;20037;-74
2022/03/31 09:42:38;;;;;;;3.55;2.95;;;;;;;;;;5000729;28;20039;-75
2022/03/31 09:45:04;;;;;;;4.57;3.03;;;;;;;;;;5006237;28;20148;-76
2022/03/31 09:47:29;;;;;;;4.32;3.20;;;;;;;;;;5001052;28;20424;-75
2022/03/31 09:49:55;;;;;;;3.45;3.15;;;;;;;;;;5016102;28;20082;-75
2022/03/31 09:52:21;;;;;;;3.38;2.92;;;;;;;;;;4989748;28;20029;-77
2022/03/31 09:54:49;;;;;;;2.88;2.42;;;;;;;;;;5017239;28;20108;-74
2022/03/31 09:57:20;;;;;;;3.78;2.97;;;;;;;;;;5017915;28;21930;-74
2022/03/31 09:59:49;;;;;;;3.80;2.78;;;;;;;;;;5017201;28;20033;-74
2022/03/31 10:02:15;;;;;;;3.83;3.10;;;;;;;;;;5016799;28;20029;-76
2022/03/31 10:04:43;;;;;;;3.50;3.10;;;;;;;;;;5017196;28;20053;-75
2022/03/31 10:07:10;;;;;;;6.93;3.10;;;;;;;;;;5016929;28;20036;-76
2022/03/31 10:09:39;;;;;;;4.45;3.20;;;;;;;;;;5016340;28;20025;-76
2022/03/31 10:12:37;;;;;;;3.30;2.88;;;;;;;;;;5015986;28;20033;-76
2022/03/31 10:15:08;;;;;;;3.53;2.83;;;;;;;;;;4958072;28;20080;-77
2022/03/31 10:17:36;;;;;;;4.28;3.13;;;;;;;;;;5005543;28;20083;-76
2022/03/31 10:20:07;;;;;;;5.10;3.33;;;;;;;;;;5016981;28;20119;-76
2022/03/31 10:25:17;;;;;;;4.05;3.28;;;;;;;;;;5014856;28;20310;-76
2022/03/31 10:27:49;;;;;;;4.80;3.45;;;;;;;;;;5016079;28;20277;-76
2022/03/31 10:30:19;;;;;;;5.25;3.70;;;;;;;;;;5016271;28;22262;-75
2022/03/31 10:33:03;;;;;;;4.95;3.85;;;;;;;;;;5009120;28;20043;-75
2022/03/31 10:35:29;;;;;;;5.65;4.10;;;;;;;;;;5001162;28;20562;-76
2022/03/31 10:37:55;;;;;;;4.82;4.03;;;;;;;;;;5016528;28;20029;-75
2022/03/31 10:40:28;;;;;;;5.72;3.92;;;;;;;;;;5006761;28;20024;-75
2022/03/31 10:42:55;;;;;;;5.13;4.22;;;;;;;;;;5003597;28;20025;-75
2022/03/31 10:45:20;;;;;;;5.00;4.43;;;;;;;;;;5016826;28;20021;-73
2022/03/31 10:47:45;;;;;;;4.60;3.65;;;;;;;;;;4998654;28;20425;-75
2022/03/31 10:50:22;;;;;;;4.40;3.70;;;;;;;;;;5016495;28;20047;-75
2022/03/31 10:52:56;;;;;;;4.10;3.70;;;;;;;;;;4998230;28;20126;-74
2022/03/31 10:55:32;;;;;;;3.88;3.40;;;;;;;;;;5016311;28;20029;-74
2022/03/31 10:57:57;;;;;;;4.47;3.70;;;;;;;;;;5014582;28;20045;-74
2022/03/31 11:00:22;;;;;;;4.50;3.80;;;;;;;;;;5000645;28;20517;-74
2022/03/31 11:02:49;;;;;;;4.25;3.85;;;;;;;;;;5014757;28;20037;-74
2022/03/31 11:05:15;;;;;;;4.60;4.20;;;;;;;;;;5015816;28;20780;-74
2022/03/31 11:07:40;;;;;;;5.63;4.50;;;;;;;;;;5016423;28;20045;-75
2022/03/31 11:10:08;;;;;;;4.55;4.10;;;;;;;;;;5017292;28;20037;-74
2022/03/31 11:12:36;;;;;;;6.22;4.70;;;;;;;;;;4998086;28;20037;-75
2022/03/31 11:15:07;;;;;;;5.53;4.93;;;;;;;;;;5003006;28;20032;-76
2022/03/31 11:17:33;;;;;;;6.00;4.85;;;;;;;;;;5015140;28;20077;-75
2022/03/31 11:20:00;;;;;;;5.93;5.18;;;;;;;;;;5020167;28;20060;-74
2022/03/31 11:22:27;;;;;;;6.85;5.80;;;;;;;;;;5003002;28;20540;-75
2022/03/31 11:24:54;;;;;;;6.82;5.47;;;;;;;;;;5020081;28;20806;-76
2022/03/31 11:27:49;;;;;;;7.75;6.63;;;;;;;;;;5020226;28;20482;-74
2022/03/31 11:30:18;;;;;;;7.53;6.03;;;;;;;;;;5000153;28;20045;-75
2022/03/31 11:32:43;;;;;;;6.13;4.85;;;;;;;;;;5019131;28;20120;-76
2022/03/31 11:35:10;;;;;;;4.30;3.75;;;;;;;;;;5017987;28;20033;-76
2022/03/31 11:37:40;;;;;;;4.60;3.70;;;;;;;;;;5020155;28;20169;-75
2022/03/31 11:40:06;;;;;;;4.03;3.60;;;;;;;;;;5019754;28;20029;-75
2022/03/31 11:42:31;;;;;;;4.63;3.90;;;;;;;;;;5002174;28;20327;-76
2022/03/31 11:44:57;;;;;;;6.03;3.95;;;;;;;;;;5018544;28;20037;-75
2022/03/31 11:47:24;;;;;;;6.75;4.10;;;;;;;;;;5019686;28;20275;-75
2022/03/31 11:49:57;;;;;;;4.57;3.75;;;;;;;;;;5017925;28;20145;-75
2022/03/31 11:52:30;;;;;;;6.30;4.05;;;;;;;;;;5002282;28;20032;-75
2022/03/31 11:55:00;;;;;;;4.75;3.95;;;;;;;;;;5018816;28;20377;-74
2022/03/31 11:57:27;;;;;;;4.82;4.32;;;;;;;;;;5019949;28;20045;-75
2022/03/31 11:59:52;;;;;;;6.28;4.60;;;;;;;;;;5016504;28;20189;-73
2022/03/31 12:02:18;;;;;;;6.95;5.22;;;;;;;;;;5000446;28;20538;-75
2022/03/31 12:04:44;;;;;;;5.80;5.00;;;;;;;;;;5020349;28;20124;-73
2022/03/31 12:07:10;;;;;;;5.80;4.80;;;;;;;;;;5017281;28;20033;-74
2022/03/31 12:09:38;;;;;;;5.75;4.60;;;;;;;;;;5002509;28;20029;-74
2022/03/31 12:12:06;;;;;;;7.20;5.10;;;;;;;;;;5001144;28;20040;-75
2022/03/31 12:14:34;;;;;;;5.88;5.03;;;;;;;;;;5018734;28;20135;-76
2022/03/31 12:16:59;;;;;;;6.20;5.00;;;;;;;;;;5004538;28;20273;-75
2022/03/31 12:19:25;;;;;;;7.05;5.03;;;;;;;;;;5006862;28;20119;-74
2022/03/31 12:21:56;;;;;;;6.15;5.30;;;;;;;;;;5018688;28;20638;-75
2022/03/31 12:24:21;;;;;;;7.10;5.45;;;;;;;;;;4999573;28;20117;-73
2022/03/31 12:26:57;;;;;;;7.55;5.28;;;;;;;;;;5001405;28;20021;-75
2022/03/31 12:29:24;;;;;;;6.57;4.80;;;;;;;;;;5017941;28;20029;-76
2022/03/31 12:32:03;;;;;;;9.20;5.30;;;;;;;;;;5017961;28;20136;-75
2022/03/31 12:34:28;;;;;;;5.65;4.90;;;;;;;;;;5000545;28;20124;-75
2022/03/31 12:36:54;;;;;;;5.20;4.35;;;;;;;;;;5020649;28;20555;-76
2022/03/31 12:39:22;;;;;;;5.03;4.53;;;;;;;;;;5003271;28;20040;-76
2022/03/31 12:41:51;;;;;;;5.00;4.50;;;;;;;;;;5018159;28;20099;-75
2022/03/31 12:44:20;;;;;;;5.15;4.40;;;;;;;;;;5003503;28;20148;-74
2022/03/31 12:46:53;;;;;;;4.88;4.22;;;;;;;;;;5001152;28;20033;-76
2022/03/31 12:49:20;;;;;;;4.90;4.35;;;;;;;;;;5017639;28;20587;-68
2022/03/31 12:51:50;;;;;;;5.63;4.57;;;;;;;;;;5018229;28;20036;-69
2022/03/31 12:54:36;;;;;;;5.38;4.50;;;;;;;;;;5018336;28;20028;-67
2022/03/31 12:57:10;;;;;;;5.57;4.50;;;;;;;;;;5018260;28;20159;-67
2022/03/31 12:59:38;;;;;;;5.82;4.85;;;;;;;;;;5018170;28;20041;-68
2022/03/31 13:02:07;;;;;;;5.57;4.78;;;;;;;;;;5018209;28;20036;-67
2022/03/31 13:04:38;;;;;;;6.45;5.25;;;;;;;;;;5000337;28;20029;-67
2022/03/31 13:07:14;;;;;;;6.40;4.45;;;;;;;;;;5019594;28;20021;-68
2022/03/31 13:09:42;;;;;;;5.95;5.10;;;;;;;;;;5018349;28;20034;-68
2022/03/31 13:12:10;;;;;;;6.25;5.22;;;;;;;;;;5018185;28;20041;-68
2022/03/31 13:14:39;;;;;;;6.82;5.32;;;;;;;;;;5017577;28;20100;-69
2022/03/31 13:17:06;;;;;;;6.57;5.35;;;;;;;;;;5018090;28;20049;-68
2022/03/31 13:19:31;;;;;;;5.72;4.45;;;;;;;;;;5017890;28;20524;-70
2022/03/31 13:21:57;;;;;;;5.93;5.00;;;;;;;;;;5018392;28;20090;-68
2022/03/31 13:24:23;;;;;;;6.22;5.32;;;;;;;;;;5016878;28;20257;-68
2022/03/31 13:26:49;;;;;;;8.75;5.15;;;;;;;;;;5016742;28;20033;-67
2022/03/31 13:29:15;;;;;;;6.53;5.20;;;;;;;;;;5015236;28;20033;-67
2022/03/31 13:31:42;;;;;;;7.30;5.28;;;;;;;;;;5016974;28;20182;-67
2022/03/31 13:34:08;;;;;;;6.53;5.47;;;;;;;;;;5006175;28;20064;-66
2022/03/31 13:36:33;;;;;;;6.80;5.97;;;;;;;;;;5017289;28;20057;-67
2022/03/31 13:38:59;;;;;;;9.30;6.68;;;;;;;;;;4968118;28;20931;-66
2022/03/31 13:41:24;;;;;;;6.88;5.93;;;;;;;;;;4999710;28;20034;-67
2022/03/31 13:43:50;;;;;;;7.53;5.80;;;;;;;;;;4989874;28;20029;-67
2022/03/31 13:46:15;;;;;;;6.57;5.60;;;;;;;;;;4998493;28;20033;-67
2022/03/31 13:48:41;;;;;;;8.10;5.55;;;;;;;;;;5016996;28;20032;-66
2022/03/31 13:51:06;;;;;;;6.55;5.60;;;;;;;;;;5017865;28;20408;-68
2022/03/31 13:53:43;;;;;;;7.65;6.35;;;;;;;;;;5016907;28;20033;-67
2022/03/31 13:56:12;;;;;;;7.13;5.85;;;;;;;;;;5001264;28;20058;-67
2022/03/31 14:01:22;;;;;;;7.85;6.05;;;;;;;;;;5003097;28;20037;-69
2022/03/31 14:03:48;;;;;;;8.10;6.80;;;;;;;;;;5016553;28;20412;-68
2022/03/31 14:06:18;;;;;;;7.57;6.47;;;;;;;;;;5001662;28;20025;-69
2022/03/31 14:08:44;;;;;;;7.80;6.40;;;;;;;;;;5017811;28;20409;-68
2022/03/31 14:11:10;;;;;;;10.07;6.70;;;;;;;;;;5016062;28;20329;-67
2022/03/31 14:13:38;;;;;;;7.38;6.38;;;;;;;;;;5004670;28;20072;-68
2022/03/31 14:16:05;;;;;;;7.57;6.40;;;;;;;;;;5015409;28;20039;-69
2022/03/31 14:18:32;;;;;;;8.18;6.88;;;;;;;;;;5016681;28;20139;-68
2022/03/31 14:20:58;;;;;;;7.07;6.05;;;;;;;;;;5016015;28;20111;-68
2022/03/31 14:23:24;;;;;;;6.78;5.78;;;;;;;;;;5017308;28;20384;-68
2022/03/31 14:25:50;;;;;;;9.30;7.22;;;;;;;;;;4997708;28;20112;-69
2022/03/31 14:28:15;;;;;;;7.40;6.38;;;;;;;;;;5017288;28;20144;-69
2022/03/31 14:30:42;;;;;;;7.55;6.45;;;;;;;;;;5016367;28;20403;-68
2022/03/31 14:33:08;;;;;;;9.20;6.80;;;;;;;;;;4998662;28;20432;-68
2022/03/31 14:35:36;;;;;;;7.55;6.18;;;;;;;;;;5017034;28;20311;-68
2022/03/31 14:38:01;;;;;;;7.20;6.05;;;;;;;;;;5016794;28;20087;-67
2022/03/31 14:40:27;;;;;;;6.80;5.80;;;;;;;;;;5016756;28;20096;-68
2022/03/31 14:42:55;;;;;;;8.85;6.45;;;;;;;;;;5016239;28;20037;-68
2022/03/31 14:45:20;;;;;;;7.38;6.10;;;;;;;;;;4998220;28;20721;-69